sensor_id;sensor_type;location;lat;lon;timestamp;pressure;altitude;pressure_sealevel;temperature;humidity
27623;BME280;15041;45.334;5.622;2024-01-06T00:01:22;98136.50;;;9.84;100.00
27623;BME280;15041;45.334;5.622;2024-01-06T00:03:49;98135.72;;;9.84;100.00
27623;BME280;15041;45.334;5.622;2024-01-06T00:06:16;98133.00;;;9.84;100.00
27623;BME280;15041;45.334;5.622;2024-01-06T00:08:43;98126.53;;;9.85;100.00
27623;BME280;15041;45.334;5.622;2024-01-06T00:11:10;98126.53;;;9.85;100.00
27623;BME280;15041;45.334;5.622;2024-01-06T00:13:37;98124.13;;;9.83;100.00
27623;BME280;15041;45.334;5.622;2024-01-06T00:16:05;98120.31;;;9.84;100.00
27623;BME280;15041;45.334;5.622;2024-01-06T00:18:33;98121.97;;;9.85;100.00
27623;BME280;15041;45.334;5.622;2024-01-06T00:21:00;98107.66;;;9.85;100.00
27623;BME280;15041;45.334;5.622;2024-01-06T00:23:28;98104.97;;;9.85;100.00
27623;BME280;15041;45.334;5.622;2024-01-06T00:25:55;98118.44;;;9.85;100.00
27623;BME280;15041;45.334;5.622;2024-01-06T00:28:22;98110.38;;;9.85;100.00
27623;BME280;15041;45.334;5.622;2024-01-06T00:30:49;98109.28;;;9.86;100.00
27623;BME280;15041;45.334;5.622;2024-01-06T00:33:16;98109.28;;;9.86;100.00
27623;BME280;15041;45.334;5.622;2024-01-06T00:35:44;98113.59;;;9.87;100.00
27623;BME280;15041;45.334;5.622;2024-01-06T00:38:12;98122.75;;;9.86;100.00
27623;BME280;15041;45.334;5.622;2024-01-06T00:40:39;98127.06;;;9.87;100.00
27623;BME280;15041;45.334;5.622;2024-01-06T00:43:06;98121.38;;;9.88;100.00
27623;BME280;15041;45.334;5.622;2024-01-06T00:45:33;98126.75;;;9.88;100.00
27623;BME280;15041;45.334;5.622;2024-01-06T00:48:00;98132.16;;;9.88;100.00
27623;BME280;15041;45.334;5.622;2024-01-06T00:50:27;98152.09;;;9.87;100.00
27623;BME280;15041;45.334;5.622;2024-01-06T00:52:56;98150.50;;;9.86;100.00
27623;BME280;15041;45.334;5.622;2024-01-06T00:55:23;98138.91;;;9.86;100.00
27623;BME280;15041;45.334;5.622;2024-01-06T00:57:50;98133.53;;;9.86;100.00
27623;BME280;15041;45.334;5.622;2024-01-06T01:00:18;98128.66;;;9.88;100.00
27623;BME280;15041;45.334;5.622;2024-01-06T01:02:45;98132.47;;;9.87;100.00
27623;BME280;15041;45.334;5.622;2024-01-06T01:05:12;98142.94;;;9.88;100.00
27623;BME280;15041;45.334;5.622;2024-01-06T01:07:39;98149.13;;;9.89;100.00
27623;BME280;15041;45.334;5.622;2024-01-06T01:10:08;98145.13;;;9.86;100.00
27623;BME280;15041;45.334;5.622;2024-01-06T01:12:35;98145.94;;;9.87;100.00
27623;BME280;15041;45.334;5.622;2024-01-06T01:15:03;98151.31;;;9.87;100.00
27623;BME280;15041;45.334;5.622;2024-01-06T01:17:30;98145.94;;;9.87;100.00
27623;BME280;15041;45.334;5.622;2024-01-06T01:19:57;98152.09;;;9.87;100.00
27623;BME280;15041;45.334;5.622;2024-01-06T01:22:24;98155.06;;;9.86;100.00
27623;BME280;15041;45.334;5.622;2024-01-06T01:24:51;98158.31;;;9.88;100.00
27623;BME280;15041;45.334;5.622;2024-01-06T01:27:20;98162.88;;;9.87;100.00
27623;BME280;15041;45.334;5.622;2024-01-06T01:29:47;98162.88;;;9.87;100.00
27623;BME280;15041;45.334;5.622;2024-01-06T01:32:18;98167.50;;;9.87;100.00
27623;BME280;15041;45.334;5.622;2024-01-06T01:34:49;98165.56;;;9.87;100.00
27623;BME280;15041;45.334;5.622;2024-01-06T01:37:16;98171.78;;;9.88;100.00
27623;BME280;15041;45.334;5.622;2024-01-06T01:39:43;98166.91;;;9.90;100.00
27623;BME280;15041;45.334;5.622;2024-01-06T01:42:10;98154.53;;;9.89;100.00
27623;BME280;15041;45.334;5.622;2024-01-06T01:44:38;98159.91;;;9.89;100.00
27623;BME280;15041;45.334;5.622;2024-01-06T01:47:06;98158.31;;;9.88;100.00
27623;BME280;15041;45.334;5.622;2024-01-06T01:49:34;98161.50;;;9.90;100.00
27623;BME280;15041;45.334;5.622;2024-01-06T01:52:02;98156.66;;;9.92;100.00
27623;BME280;15041;45.334;5.622;2024-01-06T01:54:29;98161.00;;;9.88;100.00
27623;BME280;15041;45.334;5.622;2024-01-06T01:56:57;98172.28;;;9.90;100.00
27623;BME280;15041;45.334;5.622;2024-01-06T01:59:24;98173.88;;;9.91;100.00
27623;BME280;15041;45.334;5.622;2024-01-06T02:01:53;98166.91;;;9.90;100.00
27623;BME280;15041;45.334;5.622;2024-01-06T02:04:20;98178.50;;;9.90;100.00
27623;BME280;15041;45.334;5.622;2024-01-06T02:06:47;98177.41;;;9.91;100.00
27623;BME280;15041;45.334;5.622;2024-01-06T02:09:14;98183.63;;;9.92;100.00
27623;BME280;15041;45.334;5.622;2024-01-06T02:11:41;98180.91;;;9.92;100.00
27623;BME280;15041;45.334;5.622;2024-01-06T02:14:08;98190.06;;;9.91;100.00
27623;BME280;15041;45.334;5.622;2024-01-06T02:16:35;98188.72;;;9.93;100.00
27623;BME280;15041;45.334;5.622;2024-01-06T02:19:04;98187.91;;;9.93;100.00
27623;BME280;15041;45.334;5.622;2024-01-06T02:21:33;98177.13;;;9.93;100.00
27623;BME280;15041;45.334;5.622;2024-01-06T02:24:04;98187.91;;;9.93;100.00
27623;BME280;15041;45.334;5.622;2024-01-06T02:26:31;98183.63;;;9.92;100.00
27623;BME280;15041;45.334;5.622;2024-01-06T02:28:58;98197.88;;;9.92;100.00
27623;BME280;15041;45.334;5.622;2024-01-06T02:31:27;98197.88;;;9.92;100.00
27623;BME280;15041;45.334;5.622;2024-01-06T02:33:54;98198.69;;;9.93;100.00
27623;BME280;15041;45.334;5.622;2024-01-06T02:36:21;98199.50;;;9.93;100.00
27623;BME280;15041;45.334;5.622;2024-01-06T02:38:48;98202.19;;;9.93;100.00
27623;BME280;15041;45.334;5.622;2024-01-06T02:41:17;98197.09;;;9.92;100.00
27623;BME280;15041;45.334;5.622;2024-01-06T02:43:44;98198.69;;;9.93;100.00
27623;BME280;15041;45.334;5.622;2024-01-06T02:46:11;98196.81;;;9.93;100.00
27623;BME280;15041;45.334;5.622;2024-01-06T02:48:38;98198.69;;;9.93;100.00
27623;BME280;15041;45.334;5.622;2024-01-06T02:51:06;98198.69;;;9.93;100.00
27623;BME280;15041;45.334;5.622;2024-01-06T02:53:33;98205.69;;;9.94;100.00
27623;BME280;15041;45.334;5.622;2024-01-06T02:56:00;98203.53;;;9.96;100.00
27623;BME280;15041;45.334;5.622;2024-01-06T02:58:28;98213.22;;;9.97;100.00
27623;BME280;15041;45.334;5.622;2024-01-06T03:00:55;98213.47;;;9.95;100.00
27623;BME280;15041;45.334;5.622;2024-01-06T03:03:22;98201.88;;;9.95;100.00
27623;BME280;15041;45.334;5.622;2024-01-06T03:05:49;98208.91;;;9.96;100.00
27623;BME280;15041;45.334;5.622;2024-01-06T03:08:17;98203.53;;;9.96;100.00
27623;BME280;15041;45.334;5.622;2024-01-06T03:10:44;98203.53;;;9.96;100.00
27623;BME280;15041;45.334;5.622;2024-01-06T03:13:11;98194.34;;;9.97;100.00
27623;BME280;15041;45.334;5.622;2024-01-06T03:15:39;98183.56;;;9.97;100.00
27623;BME280;15041;45.334;5.622;2024-01-06T03:18:06;98181.16;;;9.95;100.00
27623;BME280;15041;45.334;5.622;2024-01-06T03:20:34;98182.75;;;9.96;100.00
27623;BME280;15041;45.334;5.622;2024-01-06T03:23:01;98188.94;;;9.97;100.00
27623;BME280;15041;45.334;5.622;2024-01-06T03:25:28;98179.78;;;9.98;100.00
27623;BME280;15041;45.334;5.622;2024-01-06T03:27:56;98189.78;;;9.97;100.00
27623;BME280;15041;45.334;5.622;2024-01-06T03:30:23;98188.94;;;9.97;100.00
27623;BME280;15041;45.334;5.622;2024-01-06T03:32:51;98192.16;;;9.99;100.00
27623;BME280;15041;45.334;5.622;2024-01-06T03:35:18;98190.56;;;9.98;100.00
27623;BME280;15041;45.334;5.622;2024-01-06T03:37:45;98188.94;;;9.97;100.00
27623;BME280;15041;45.334;5.622;2024-01-06T03:40:12;98202.16;;;9.98;100.00
27623;BME280;15041;45.334;5.622;2024-01-06T03:42:40;98193.78;;;10.00;100.00
27623;BME280;15041;45.334;5.622;2024-01-06T03:45:07;98199.19;;;10.00;100.00
27623;BME280;15041;45.334;5.622;2024-01-06T03:47:35;98190.28;;;9.99;100.00
27623;BME280;15041;45.334;5.622;2024-01-06T03:50:04;98204.56;;;10.00;100.00
27623;BME280;15041;45.334;5.622;2024-01-06T03:52:31;98201.34;;;9.98;100.00
27623;BME280;15041;45.334;5.622;2024-01-06T03:54:58;98199.72;;;9.97;100.00
27623;BME280;15041;45.334;5.622;2024-01-06T03:57:26;98199.72;;;9.97;100.00
27623;BME280;15041;45.334;5.622;2024-01-06T03:59:53;98206.72;;;9.98;100.00
27623;BME280;15041;45.334;5.622;2024-01-06T04:02:20;98205.63;;;9.99;100.00
27623;BME280;15041;45.334;5.622;2024-01-06T04:04:47;98205.63;;;10.04;100.00
27623;BME280;15041;45.334;5.622;2024-01-06T04:07:16;98202.38;;;10.07;100.00
27623;BME280;15041;45.334;5.622;2024-01-06T04:09:43;98208.31;;;10.04;100.00
27623;BME280;15041;45.334;5.622;2024-01-06T04:12:10;98211.56;;;10.01;100.00
27623;BME280;15041;45.334;5.622;2024-01-06T04:14:37;98206.16;;;10.01;100.00
27623;BME280;15041;45.334;5.622;2024-01-06T04:17:04;98211.34;;;9.97;100.00
27623;BME280;15041;45.334;5.622;2024-01-06T04:19:31;98217.50;;;9.98;100.00
27623;BME280;15041;45.334;5.622;2024-01-06T04:21:59;98208.31;;;9.99;100.00
27623;BME280;15041;45.334;5.622;2024-01-06T04:24:28;98208.31;;;9.99;100.00
27623;BME280;15041;45.334;5.622;2024-01-06T04:26:56;98208.31;;;9.99;100.00
27623;BME280;15041;45.334;5.622;2024-01-06T04:29:23;98204.84;;;9.98;100.00
27623;BME280;15041;45.334;5.622;2024-01-06T04:31:50;98203.75;;;9.99;100.00
27623;BME280;15041;45.334;5.622;2024-01-06T04:34:17;98204.03;;;9.98;100.00
27623;BME280;15041;45.334;5.622;2024-01-06T04:36:44;98205.13;;;9.97;100.00
27623;BME280;15041;45.334;5.622;2024-01-06T04:39:11;98197.84;;;9.97;100.00
27623;BME280;15041;45.334;5.622;2024-01-06T04:41:41;98207.81;;;9.97;100.00
27623;BME280;15041;45.334;5.622;2024-01-06T04:44:08;98203.53;;;9.96;100.00
27623;BME280;15041;45.334;5.622;2024-01-06T04:46:35;98198.91;;;9.96;100.00
27623;BME280;15041;45.334;5.622;2024-01-06T04:49:02;98209.69;;;9.96;100.00
27623;BME280;15041;45.334;5.622;2024-01-06T04:51:29;98210.50;;;9.97;100.00
27623;BME280;15041;45.334;5.622;2024-01-06T04:53:56;98214.56;;;9.94;100.00
27623;BME280;15041;45.334;5.622;2024-01-06T04:56:24;98222.38;;;9.96;100.00
27623;BME280;15041;45.334;5.622;2024-01-06T04:58:52;98215.09;;;9.96;100.00
27623;BME280;15041;45.334;5.622;2024-01-06T05:01:20;98216.72;;;9.97;100.00
27623;BME280;15041;45.334;5.622;2024-01-06T05:03:47;98225.09;;;9.96;100.00
27623;BME280;15041;45.334;5.622;2024-01-06T05:06:14;98223.44;;;9.95;100.00
27623;BME280;15041;45.334;5.622;2024-01-06T05:08:42;98223.44;;;9.95;100.00
27623;BME280;15041;45.334;5.622;2024-01-06T05:11:11;98221.84;;;9.94;100.00
27623;BME280;15041;45.334;5.622;2024-01-06T05:13:38;98226.16;;;9.95;100.00
27623;BME280;15041;45.334;5.622;2024-01-06T05:16:07;98219.69;;;9.96;100.00
27623;BME280;15041;45.334;5.622;2024-01-06T05:18:34;98215.91;;;9.97;100.00
27623;BME280;15041;45.334;5.622;2024-01-06T05:21:02;98216.72;;;9.97;100.00
27623;BME280;15041;45.334;5.622;2024-01-06T05:23:29;98221.84;;;9.94;100.00
27623;BME280;15041;45.334;5.622;2024-01-06T05:25:56;98217.28;;;9.94;100.00
27623;BME280;15041;45.334;5.622;2024-01-06T05:28:24;98215.91;;;9.97;100.00
27623;BME280;15041;45.334;5.622;2024-01-06T05:30:51;98218.06;;;9.95;100.00
27623;BME280;15041;45.334;5.622;2024-01-06T05:33:20;98226.44;;;9.93;100.00
27623;BME280;15041;45.334;5.622;2024-01-06T05:35:47;98231.03;;;9.93;100.00
27623;BME280;15041;45.334;5.622;2024-01-06T05:38:14;98233.72;;;9.93;100.00
27623;BME280;15041;45.334;5.622;2024-01-06T05:40:42;98234.81;;;9.92;100.00
27623;BME280;15041;45.334;5.622;2024-01-06T05:43:09;98240.19;;;9.92;100.00
27623;BME280;15041;45.334;5.622;2024-01-06T05:45:37;98246.38;;;9.92;100.00
27623;BME280;15041;45.334;5.622;2024-01-06T05:48:08;98249.34;;;9.91;100.00
27623;BME280;15041;45.334;5.622;2024-01-06T05:50:37;98254.72;;;9.91;100.00
27623;BME280;15041;45.334;5.622;2024-01-06T05:53:06;98250.16;;;9.91;100.00
27623;BME280;15041;45.334;5.622;2024-01-06T05:55:34;98256.66;;;9.90;100.00
27623;BME280;15041;45.334;5.622;2024-01-06T05:58:01;98263.91;;;9.90;100.00
27623;BME280;15041;45.334;5.622;2024-01-06T06:00:28;98259.63;;;9.89;99.89
27623;BME280;15041;45.334;5.622;2024-01-06T06:02:57;98266.09;;;9.88;99.30
27623;BME280;15041;45.334;5.622;2024-01-06T06:05:24;98260.44;;;9.89;97.61
27623;BME280;15041;45.334;5.622;2024-01-06T06:07:53;98268.78;;;9.88;98.68
27623;BME280;15041;45.334;5.622;2024-01-06T06:10:20;98273.09;;;9.89;99.91
27623;BME280;15041;45.334;5.622;2024-01-06T06:12:47;98280.66;;;9.87;100.00
27623;BME280;15041;45.334;5.622;2024-01-06T06:15:14;98280.66;;;9.87;100.00
27623;BME280;15041;45.334;5.622;2024-01-06T06:17:42;98281.44;;;9.87;100.00
27623;BME280;15041;45.334;5.622;2024-01-06T06:20:09;98286.03;;;9.87;99.95
27623;BME280;15041;45.334;5.622;2024-01-06T06:22:37;98287.38;;;9.89;98.12
27623;BME280;15041;45.334;5.622;2024-01-06T06:25:06;98294.13;;;9.87;99.27
27623;BME280;15041;45.334;5.622;2024-01-06T06:27:34;98289.81;;;9.86;99.62
27623;BME280;15041;45.334;5.622;2024-01-06T06:30:01;98292.50;;;9.86;100.00
27623;BME280;15041;45.334;5.622;2024-01-06T06:32:29;98294.13;;;9.87;100.00
27623;BME280;15041;45.334;5.622;2024-01-06T06:34:56;98297.88;;;9.86;100.00
27623;BME280;15041;45.334;5.622;2024-01-06T06:37:23;98302.22;;;9.87;100.00
27623;BME280;15041;45.334;5.622;2024-01-06T06:39:50;98301.69;;;9.85;100.00
27623;BME280;15041;45.334;5.622;2024-01-06T06:42:19;98298.72;;;9.86;100.00
27623;BME280;15041;45.334;5.622;2024-01-06T06:44:46;98303.28;;;9.86;99.45
27623;BME280;15041;45.334;5.622;2024-01-06T06:47:14;98304.91;;;9.87;97.78
27623;BME280;15041;45.334;5.622;2024-01-06T06:49:41;98315.16;;;9.85;98.09
27623;BME280;15041;45.334;5.622;2024-01-06T06:52:08;98318.13;;;9.83;97.57
27623;BME280;15041;45.334;5.622;2024-01-06T06:54:35;98310.31;;;9.82;98.05
27623;BME280;15041;45.334;5.622;2024-01-06T06:57:02;98321.09;;;9.82;97.52
27623;BME280;15041;45.334;5.622;2024-01-06T06:59:31;98323.78;;;9.82;96.37
27623;BME280;15041;45.334;5.622;2024-01-06T07:01:58;98321.09;;;9.82;96.72
27623;BME280;15041;45.334;5.622;2024-01-06T07:04:25;98324.88;;;9.81;96.84
27623;BME280;15041;45.334;5.622;2024-01-06T07:06:52;98331.34;;;9.80;98.44
27623;BME280;15041;45.334;5.622;2024-01-06T07:09:20;98324.88;;;9.81;98.27
27623;BME280;15041;45.334;5.622;2024-01-06T07:11:49;98334.03;;;9.80;97.77
27623;BME280;15041;45.334;5.622;2024-01-06T07:14:16;98332.44;;;9.79;98.17
27623;BME280;15041;45.334;5.622;2024-01-06T07:16:45;98332.13;;;9.80;98.11
27623;BME280;15041;45.334;5.622;2024-01-06T07:19:12;98334.59;;;9.77;98.18
27623;BME280;15041;45.334;5.622;2024-01-06T07:21:39;98341.56;;;9.78;98.66
27623;BME280;15041;45.334;5.622;2024-01-06T07:24:06;98338.88;;;9.78;98.26
27623;BME280;15041;45.334;5.622;2024-01-06T07:26:33;98348.31;;;9.75;98.59
27623;BME280;15041;45.334;5.622;2024-01-06T07:29:02;98351.56;;;9.77;100.00
27623;BME280;15041;45.334;5.622;2024-01-06T07:31:29;98350.75;;;9.77;100.00
27623;BME280;15041;45.334;5.622;2024-01-06T07:33:57;98356.13;;;9.77;100.00
27623;BME280;15041;45.334;5.622;2024-01-06T07:36:25;98355.34;;;9.76;100.00
27623;BME280;15041;45.334;5.622;2024-01-06T07:38:52;98354.53;;;9.76;100.00
27623;BME280;15041;45.334;5.622;2024-01-06T07:41:19;98357.22;;;9.76;100.00
27623;BME280;15041;45.334;5.622;2024-01-06T07:43:46;98359.91;;;9.76;100.00
27623;BME280;15041;45.334;5.622;2024-01-06T07:46:14;98351.84;;;9.76;100.00
27623;BME280;15041;45.334;5.622;2024-01-06T07:48:41;98363.72;;;9.75;100.00
27623;BME280;15041;45.334;5.622;2024-01-06T07:51:09;98363.97;;;9.73;96.61
27623;BME280;15041;45.334;5.622;2024-01-06T07:53:37;98357.00;;;9.72;95.48
27623;BME280;15041;45.334;5.622;2024-01-06T07:56:04;98358.88;;;9.72;95.32
27623;BME280;15041;45.334;5.622;2024-01-06T07:58:31;98357.25;;;9.71;96.43
27623;BME280;15041;45.334;5.622;2024-01-06T08:00:58;98357.25;;;9.71;97.42
27623;BME280;15041;45.334;5.622;2024-01-06T08:03:27;98365.34;;;9.71;98.38
27623;BME280;15041;45.334;5.622;2024-01-06T08:05:54;98358.03;;;9.71;98.88
27623;BME280;15041;45.334;5.622;2024-01-06T08:08:23;98362.66;;;9.71;100.00
27623;BME280;15041;45.334;5.622;2024-01-06T08:10:50;98364.78;;;9.69;99.43
27623;BME280;15041;45.334;5.622;2024-01-06T08:13:17;98361.03;;;9.70;99.29
27623;BME280;15041;45.334;5.622;2024-01-06T08:15:45;98359.41;;;9.69;99.46
27623;BME280;15041;45.334;5.622;2024-01-06T08:18:12;98361.81;;;9.70;99.32
27623;BME280;15041;45.334;5.622;2024-01-06T08:20:39;98364.78;;;9.69;98.68
27623;BME280;15041;45.334;5.622;2024-01-06T08:23:06;98363.72;;;9.70;99.25
27623;BME280;15041;45.334;5.622;2024-01-06T08:25:35;98366.94;;;9.72;100.00
27623;BME280;15041;45.334;5.622;2024-01-06T08:28:02;98363.72;;;9.70;100.00
27623;BME280;15041;45.334;5.622;2024-01-06T08:30:29;98376.38;;;9.69;97.88
27623;BME280;15041;45.334;5.622;2024-01-06T08:32:56;98371.81;;;9.70;95.64
27623;BME280;15041;45.334;5.622;2024-01-06T08:35:25;98383.66;;;9.69;95.64
27623;BME280;15041;45.334;5.622;2024-01-06T08:37:52;98389.59;;;9.71;97.01
27623;BME280;15041;45.334;5.622;2024-01-06T08:40:19;98397.13;;;9.69;98.51
27623;BME280;15041;45.334;5.622;2024-01-06T08:42:49;98394.97;;;9.71;100.00
27623;BME280;15041;45.334;5.622;2024-01-06T08:45:16;98404.16;;;9.70;98.88
27623;BME280;15041;45.334;5.622;2024-01-06T08:47:43;98411.69;;;9.68;98.42
27623;BME280;15041;45.334;5.622;2024-01-06T08:50:10;98407.34;;;9.72;99.71
27623;BME280;15041;45.334;5.622;2024-01-06T08:52:37;98416.53;;;9.71;98.07
27623;BME280;15041;45.334;5.622;2024-01-06T08:55:05;98412.75;;;9.72;98.28
27623;BME280;15041;45.334;5.622;2024-01-06T08:57:33;98414.34;;;9.73;98.72
27623;BME280;15041;45.334;5.622;2024-01-06T09:00:01;98411.94;;;9.71;97.72
27623;BME280;15041;45.334;5.622;2024-01-06T09:02:28;98413.56;;;9.72;95.99
27623;BME280;15041;45.334;5.622;2024-01-06T09:04:55;98415.44;;;9.72;96.66
27623;BME280;15041;45.334;5.622;2024-01-06T09:07:23;98410.56;;;9.74;100.00
27623;BME280;15041;45.334;5.622;2024-01-06T09:09:50;98415.94;;;9.74;100.00
27623;BME280;15041;45.334;5.622;2024-01-06T09:12:17;98421.34;;;9.74;97.06
27623;BME280;15041;45.334;5.622;2024-01-06T09:14:45;98415.94;;;9.74;100.00
27623;BME280;15041;45.334;5.622;2024-01-06T09:17:14;98422.16;;;9.74;100.00
27623;BME280;15041;45.334;5.622;2024-01-06T09:19:41;98424.59;;;9.76;100.00
27623;BME280;15041;45.334;5.622;2024-01-06T09:22:08;98429.97;;;9.76;100.00
27623;BME280;15041;45.334;5.622;2024-01-06T09:24:36;98428.38;;;9.75;100.00
27623;BME280;15041;45.334;5.622;2024-01-06T09:27:03;98432.13;;;9.74;100.00
27623;BME280;15041;45.334;5.622;2024-01-06T09:29:30;98439.16;;;9.75;100.00
27623;BME280;15041;45.334;5.622;2024-01-06T09:31:57;98432.66;;;9.76;100.00
27623;BME280;15041;45.334;5.622;2024-01-06T09:34:26;98439.94;;;9.75;100.00
27623;BME280;15041;45.334;5.622;2024-01-06T09:36:53;98440.75;;;9.76;100.00
27623;BME280;15041;45.334;5.622;2024-01-06T09:39:21;98450.44;;;9.77;100.00
27623;BME280;15041;45.334;5.622;2024-01-06T09:41:48;98444.53;;;9.75;100.00
27623;BME280;15041;45.334;5.622;2024-01-06T09:44:15;98447.75;;;9.77;100.00
27623;BME280;15041;45.334;5.622;2024-01-06T09:46:42;98436.97;;;9.77;100.00
27623;BME280;15041;45.334;5.622;2024-01-06T09:49:10;98446.13;;;9.76;100.00
27623;BME280;15041;45.334;5.622;2024-01-06T09:51:40;98445.31;;;9.75;100.00
27623;BME280;15041;45.334;5.622;2024-01-06T09:54:09;98448.28;;;9.74;99.11
27623;BME280;15041;45.334;5.622;2024-01-06T09:56:39;98454.50;;;9.74;97.56
27623;BME280;15041;45.334;5.622;2024-01-06T09:59:06;98457.44;;;9.73;97.11
27623;BME280;15041;45.334;5.622;2024-01-06T10:01:34;98455.31;;;9.75;98.41
27623;BME280;15041;45.334;5.622;2024-01-06T10:04:01;98456.91;;;9.76;99.76
27623;BME280;15041;45.334;5.622;2024-01-06T10:06:29;98453.13;;;9.77;99.97
27623;BME280;15041;45.334;5.622;2024-01-06T10:08:58;98456.91;;;9.76;100.00
27623;BME280;15041;45.334;5.622;2024-01-06T10:11:25;98456.91;;;9.76;100.00
27623;BME280;15041;45.334;5.622;2024-01-06T10:13:52;98460.44;;;9.76;100.00
27623;BME280;15041;45.334;5.622;2024-01-06T10:16:21;98463.91;;;9.77;100.00
27623;BME280;15041;45.334;5.622;2024-01-06T10:18:49;98454.75;;;9.78;100.00
27623;BME280;15041;45.334;5.622;2024-01-06T10:21:16;98456.38;;;9.79;100.00
27623;BME280;15041;45.334;5.622;2024-01-06T10:23:45;98451.00;;;9.79;100.00
27623;BME280;15041;45.334;5.622;2024-01-06T10:26:15;98450.41;;;9.82;100.00
27623;BME280;15041;45.334;5.622;2024-01-06T10:28:43;98450.41;;;9.82;100.00
27623;BME280;15041;45.334;5.622;2024-01-06T10:31:10;98448.28;;;9.84;100.00
27623;BME280;15041;45.334;5.622;2024-01-06T10:33:38;98449.34;;;9.83;100.00
27623;BME280;15041;45.334;5.622;2024-01-06T10:36:06;98452.84;;;9.83;100.00
27623;BME280;15041;45.334;5.622;2024-01-06T10:38:35;98454.75;;;9.83;100.00
27623;BME280;15041;45.334;5.622;2024-01-06T10:41:03;98456.34;;;9.84;100.00
27623;BME280;15041;45.334;5.622;2024-01-06T10:43:35;98450.97;;;9.84;99.07
27623;BME280;15041;45.334;5.622;2024-01-06T10:46:06;98448.28;;;9.84;97.16
27623;BME280;15041;45.334;5.622;2024-01-06T10:48:37;98455.25;;;9.85;96.46
27623;BME280;15041;45.334;5.622;2024-01-06T10:51:09;98448.78;;;9.86;95.72
27623;BME280;15041;45.334;5.622;2024-01-06T10:53:36;98444.50;;;9.85;94.79
27623;BME280;15041;45.334;5.622;2024-01-06T10:56:05;98447.72;;;9.87;93.75
27623;BME280;15041;45.334;5.622;2024-01-06T10:58:35;98457.41;;;9.93;94.09
27623;BME280;15041;45.334;5.622;2024-01-06T11:01:08;98451.97;;;10.03;100.00
27623;BME280;15041;45.334;5.622;2024-01-06T11:03:36;98454.31;;;9.21;99.39
27623;BME280;15041;45.334;5.622;2024-01-06T11:06:05;98453.81;;;8.94;100.00
27623;BME280;15041;45.334;5.622;2024-01-06T11:08:36;98452.16;;;8.88;100.00
27623;BME280;15041;45.334;5.622;2024-01-06T11:11:09;98447.31;;;8.85;100.00
27623;BME280;15041;45.334;5.622;2024-01-06T11:13:38;98440.84;;;8.61;100.00
27623;BME280;15041;45.334;5.622;2024-01-06T11:16:05;98439.78;;;8.67;100.00
27623;BME280;15041;45.334;5.622;2024-01-06T11:18:34;98439.50;;;8.68;100.00
27623;BME280;15041;45.334;5.622;2024-01-06T11:21:17;98432.22;;;8.54;100.00
27623;BME280;15041;45.334;5.622;2024-01-06T11:24:14;98438.41;;;8.54;100.00
27623;BME280;15041;45.334;5.622;2024-01-06T11:26:43;98437.59;;;8.54;100.00
27623;BME280;15041;45.334;5.622;2024-01-06T11:29:12;98431.66;;;8.47;100.00
27623;BME280;15041;45.334;5.622;2024-01-06T11:31:40;98433.28;;;8.43;100.00
27623;BME280;15041;45.334;5.622;2024-01-06T11:34:15;98427.41;;;8.61;100.00
27623;BME280;15041;45.334;5.622;2024-01-06T11:36:45;98431.19;;;8.60;100.00
27623;BME280;15041;45.334;5.622;2024-01-06T11:39:36;98424.97;;;8.59;99.85
27623;BME280;15041;45.334;5.622;2024-01-06T11:42:04;98420.94;;;8.57;100.00
27623;BME280;15041;45.334;5.622;2024-01-06T11:44:36;98420.94;;;8.57;100.00
27623;BME280;15041;45.334;5.622;2024-01-06T11:47:04;98418.78;;;8.49;100.00
27623;BME280;15041;45.334;5.622;2024-01-06T11:49:32;98418.44;;;8.20;100.00
27623;BME280;15041;45.334;5.622;2024-01-06T11:52:00;98420.38;;;8.40;100.00
27623;BME280;15041;45.334;5.622;2024-01-06T11:54:28;98415.84;;;8.50;100.00
27623;BME280;15041;45.334;5.622;2024-01-06T11:56:57;98406.34;;;8.18;98.18
27623;BME280;15041;45.334;5.622;2024-01-06T11:59:25;98406.41;;;8.48;97.62
27623;BME280;15041;45.334;5.622;2024-01-06T12:01:54;98403.47;;;8.49;97.45
27623;BME280;15041;45.334;5.622;2024-01-06T12:04:21;98405.59;;;8.37;95.92
27623;BME280;15041;45.334;5.622;2024-01-06T12:06:51;98392.16;;;8.42;93.68
27623;BME280;15041;45.334;5.622;2024-01-06T12:09:18;98393.50;;;8.45;95.72
27623;BME280;15041;45.334;5.622;2024-01-06T12:11:46;98396.19;;;8.55;92.99
27623;BME280;15041;45.334;5.622;2024-01-06T12:14:13;98393.75;;;8.53;91.63
27623;BME280;15041;45.334;5.622;2024-01-06T12:16:42;98385.44;;;8.45;91.27
27623;BME280;15041;45.334;5.622;2024-01-06T12:19:11;98390.50;;;8.36;91.50
27623;BME280;15041;45.334;5.622;2024-01-06T12:21:38;98388.13;;;8.50;91.25
27623;BME280;15041;45.334;5.622;2024-01-06T12:24:27;98393.25;;;8.46;95.04
27623;BME280;15041;45.334;5.622;2024-01-06T12:26:55;98391.91;;;8.49;97.70
27623;BME280;15041;45.334;5.622;2024-01-06T12:29:26;98383.28;;;8.37;95.95
27623;BME280;15041;45.334;5.622;2024-01-06T12:31:54;98379.50;;;8.43;100.00
27623;BME280;15041;45.334;5.622;2024-01-06T12:34:23;98381.66;;;8.36;100.00
27623;BME280;15041;45.334;5.622;2024-01-06T12:36:53;98367.97;;;8.37;100.00
27623;BME280;15041;45.334;5.622;2024-01-06T12:39:22;98376.56;;;8.39;100.00
27623;BME280;15041;45.334;5.622;2024-01-06T12:41:50;98377.28;;;8.15;100.00
27623;BME280;15041;45.334;5.622;2024-01-06T12:44:18;98370.34;;;8.29;100.00
27623;BME280;15041;45.334;5.622;2024-01-06T12:46:45;98372.25;;;8.33;100.00
27623;BME280;15041;45.334;5.622;2024-01-06T12:49:13;98372.00;;;8.50;100.00
27623;BME280;15041;45.334;5.622;2024-01-06T12:51:41;98368.78;;;8.48;98.94
27623;BME280;15041;45.334;5.622;2024-01-06T12:54:10;98371.47;;;8.58;90.67
27623;BME280;15041;45.334;5.622;2024-01-06T12:56:37;98364.75;;;8.45;89.75
27623;BME280;15041;45.334;5.622;2024-01-06T12:59:04;98374.94;;;8.43;93.39
27623;BME280;15041;45.334;5.622;2024-01-06T13:01:32;98378.97;;;8.31;92.25
27623;BME280;15041;45.334;5.622;2024-01-06T13:03:59;98370.34;;;8.34;89.15
27623;BME280;15041;45.334;5.622;2024-01-06T13:06:27;98371.69;;;8.26;94.22